createdAt,value
2019-05-01T00:02:20.159Z,101657.50
2019-05-01T00:05:00.527Z,101647.03
2019-05-01T00:07:33.680Z,101651.21
2019-05-01T00:10:03.332Z,101651.72
2019-05-01T00:12:32.503Z,101651.13
2019-05-01T00:15:01.519Z,101639.04
2019-05-01T00:17:31.066Z,101641.27
2019-05-01T00:20:00.391Z,101641.27
2019-05-01T00:22:29.418Z,101637.09
2019-05-01T00:24:58.765Z,101632.06
2019-05-01T00:27:27.738Z,101627.24
2019-05-01T00:29:57.319Z,101633.29
2019-05-01T00:32:27.520Z,101626.16
2019-05-01T00:34:57.304Z,101632.52
2019-05-01T00:37:27.605Z,101620.47
2019-05-01T00:39:57.383Z,101622.34
2019-05-01T00:42:27.571Z,101616.31
2019-05-01T00:44:57.440Z,101616.56
2019-05-01T00:47:27.399Z,101613.98
2019-05-01T00:49:57.350Z,101610.06
2019-05-01T00:52:27.462Z,101606.77
2019-05-01T00:55:16.714Z,101608.46
2019-05-01T00:57:53.449Z,101602.92
2019-05-01T01:00:45.852Z,101598.27
2019-05-01T01:03:14.905Z,101599.24
2019-05-01T01:05:44.823Z,101597.25
2019-05-01T01:08:13.882Z,101592.72
2019-05-01T01:10:42.933Z,101591.58
2019-05-01T01:13:12.002Z,101593.20
2019-05-01T01:15:40.937Z,101590.41
2019-05-01T01:18:09.960Z,101593.33
2019-05-01T01:20:39.012Z,101590.50
2019-05-01T01:23:08.121Z,101587.89
2019-05-01T01:25:37.139Z,101578.31
2019-05-01T01:28:06.195Z,101585.22
2019-05-01T01:30:35.248Z,101576.58
2019-05-01T01:33:04.302Z,101571.89
2019-05-01T01:35:33.317Z,101568.28
2019-05-01T01:38:02.367Z,101566.60
2019-05-01T01:40:32.110Z,101568.81
2019-05-01T01:43:20.149Z,101568.33
2019-05-01T01:45:50.950Z,101563.29
2019-05-01T01:48:19.965Z,101565.13
2019-05-01T01:50:49.226Z,101560.93
2019-05-01T01:53:21.312Z,101560.33
2019-05-01T01:55:50.766Z,101552.86
2019-05-01T01:58:21.450Z,101546.63
2019-05-01T02:01:20.985Z,101546.81
2019-05-01T02:03:53.735Z,101540.00
2019-05-01T02:06:22.762Z,101540.00
2019-05-01T02:08:56.671Z,101532.69
2019-05-01T02:11:22.892Z,101532.44
2019-05-01T02:13:56.027Z,101535.28
2019-05-01T02:16:25.420Z,101522.86
2019-05-01T02:18:54.466Z,101522.86
2019-05-01T02:21:23.478Z,101515.95
2019-05-01T02:23:52.555Z,101519.97
2019-05-01T02:26:23.413Z,101519.91
2019-05-01T02:29:04.101Z,101517.88
2019-05-01T02:31:38.797Z,101512.73
2019-05-01T02:34:08.457Z,101508.17
2019-05-01T02:36:39.563Z,101500.42
2019-05-01T02:39:10.293Z,101499.90
2019-05-01T02:41:43.358Z,101499.58
2019-05-01T02:44:19.000Z,101499.31
2019-05-01T02:46:50.949Z,101494.05
2019-05-01T02:49:29.235Z,101501.67
2019-05-01T02:51:59.809Z,101502.80
2019-05-01T02:54:29.711Z,101498.97
2019-05-01T02:57:04.290Z,101496.20
2019-05-01T02:59:36.181Z,101494.27
2019-05-01T03:02:05.194Z,101493.42
2019-05-01T03:04:34.653Z,101486.00
2019-05-01T03:07:04.860Z,101495.91
2019-05-01T03:09:35.080Z,101485.73
2019-05-01T03:12:05.735Z,101480.05
2019-05-01T03:14:37.660Z,101477.75
2019-05-01T03:17:28.093Z,101484.94
2019-05-01T03:20:06.909Z,101478.22
2019-05-01T03:22:47.987Z,101479.72
2019-05-01T03:25:17.092Z,101480.42
2019-05-01T03:27:46.178Z,101479.06
2019-05-01T03:30:15.546Z,101472.41
2019-05-01T03:32:44.775Z,101468.99
2019-05-01T03:35:13.955Z,101467.91
2019-05-01T03:37:42.959Z,101468.73
2019-05-01T03:40:12.425Z,101468.84
2019-05-01T03:42:41.908Z,101464.76
2019-05-01T03:45:11.068Z,101464.61
2019-05-01T03:47:40.842Z,101467.58
2019-05-01T03:50:09.907Z,101460.27
2019-05-01T03:52:39.319Z,101468.92
2019-05-01T03:55:08.332Z,101466.36
2019-05-01T03:57:37.482Z,101463.78
2019-05-01T04:00:08.226Z,101462.15
2019-05-01T04:03:05.454Z,101466.73
2019-05-01T04:05:34.565Z,101458.09
2019-05-01T04:08:03.937Z,101454.12
2019-05-01T04:10:32.967Z,101452.20
2019-05-01T04:13:02.031Z,101443.95
2019-05-01T04:15:31.244Z,101451.70
2019-05-01T04:18:02.286Z,101455.33
2019-05-01T04:20:31.345Z,101450.42
2019-05-01T04:23:00.810Z,101453.73
2019-05-01T04:25:29.960Z,101444.88
2019-05-01T04:28:02.117Z,101444.64
2019-05-01T04:30:50.563Z,101440.72
2019-05-01T04:33:21.074Z,101440.41
2019-05-01T04:36:04.512Z,101441.02
2019-05-01T04:38:34.125Z,101441.47
2019-05-01T04:41:03.661Z,101437.67
2019-05-01T04:43:32.877Z,101443.72
2019-05-01T04:46:02.336Z,101443.16
2019-05-01T04:48:31.560Z,101440.95
2019-05-01T04:51:00.903Z,101431.17
2019-05-01T04:53:30.218Z,101441.33
2019-05-01T04:55:59.631Z,101441.47
2019-05-01T04:58:29.976Z,101448.28
2019-05-01T05:01:00.016Z,101440.54
2019-05-01T05:03:30.011Z,101441.99
2019-05-01T05:06:00.000Z,101437.19
2019-05-01T05:08:29.955Z,101438.81
2019-05-01T05:11:01.590Z,101442.73
2019-05-01T05:13:35.213Z,101445.25
2019-05-01T05:16:10.166Z,101445.25
2019-05-01T05:18:39.213Z,101439.21
2019-05-01T05:21:08.722Z,101435.84
2019-05-01T05:23:38.123Z,101429.99
2019-05-01T05:26:07.350Z,101440.23
2019-05-01T05:28:38.413Z,101434.42
2019-05-01T05:31:08.074Z,101439.36
2019-05-01T05:33:38.453Z,101439.16
2019-05-01T05:36:08.432Z,101437.67
2019-05-01T05:38:57.344Z,101439.23
2019-05-01T05:41:26.805Z,101438.01
2019-05-01T05:43:56.242Z,101435.14
2019-05-01T05:46:25.890Z,101430.27
2019-05-01T05:48:55.071Z,101430.30
2019-05-01T05:51:51.855Z,101426.58
2019-05-01T05:54:41.036Z,101428.30
2019-05-01T05:57:21.751Z,101426.71
2019-05-01T05:59:55.778Z,101423.06
2019-05-01T06:02:45.524Z,101423.33
2019-05-01T06:05:29.931Z,101421.88
2019-05-01T06:08:13.655Z,101425.67
2019-05-01T06:11:02.468Z,101423.09
2019-05-01T06:13:52.515Z,101423.97
2019-05-01T06:16:41.911Z,101422.23
2019-05-01T06:19:24.206Z,101420.97
2019-05-01T06:22:10.365Z,101427.72
2019-05-01T06:24:42.876Z,101423.25
2019-05-01T06:27:13.803Z,101423.91
2019-05-01T06:29:44.037Z,101424.17
2019-05-01T06:32:13.058Z,101422.48
2019-05-01T06:34:42.251Z,101414.55
2019-05-01T06:37:11.728Z,101425.48
2019-05-01T06:39:42.947Z,101408.70
2019-05-01T06:42:15.091Z,101418.77
2019-05-01T06:44:52.223Z,101415.09
2019-05-01T06:47:30.080Z,101408.39
2019-05-01T06:50:37.110Z,101424.02
2019-05-01T06:53:06.751Z,101417.97
2019-05-01T06:55:36.521Z,101419.12
2019-05-01T06:58:06.074Z,101421.55
2019-05-01T07:00:39.116Z,101418.48
2019-05-01T07:03:10.397Z,101414.79
2019-05-01T07:05:38.918Z,101419.09
2019-05-01T07:08:08.765Z,101417.98
2019-05-01T07:10:44.244Z,101420.41
2019-05-01T07:13:09.382Z,101419.87
2019-05-01T07:15:38.518Z,101419.84
2019-05-01T07:18:11.224Z,101423.20
2019-05-01T07:20:51.439Z,101425.12
2019-05-01T07:23:21.866Z,101416.36
2019-05-01T07:25:50.900Z,101414.73
2019-05-01T07:28:20.350Z,101410.55
2019-05-01T07:31:01.268Z,101409.55
2019-05-01T07:33:30.788Z,101412.96
2019-05-01T07:36:00.229Z,101408.08
2019-05-01T07:38:33.090Z,101412.11
2019-05-01T07:41:03.350Z,101406.75
2019-05-01T07:43:47.213Z,101404.23
2019-05-01T07:46:25.740Z,101406.68
2019-05-01T07:48:55.098Z,101410.84
2019-05-01T07:51:24.313Z,101406.30
2019-05-01T07:53:53.623Z,101397.69
2019-05-01T07:56:28.163Z,101410.36
2019-05-01T07:58:54.461Z,101414.16
2019-05-01T08:01:42.502Z,101405.45
2019-05-01T08:04:13.855Z,101403.79
2019-05-01T08:06:42.302Z,101406.92
2019-05-01T08:09:15.109Z,101404.62
2019-05-01T08:11:44.042Z,101404.22
2019-05-01T08:14:16.680Z,101406.89
2019-05-01T08:16:43.937Z,101406.25
2019-05-01T08:19:18.993Z,101413.25
2019-05-01T08:22:06.994Z,101401.95
2019-05-01T08:24:36.093Z,101410.24
2019-05-01T08:27:07.260Z,101404.02
2019-05-01T08:30:01.608Z,101393.73
2019-05-01T08:32:49.600Z,101400.70
2019-05-01T08:35:20.898Z,101402.63
2019-05-01T08:37:53.768Z,101406.13
2019-05-01T08:40:21.715Z,101404.30
2019-05-01T08:42:51.014Z,101400.42
2019-05-01T08:45:35.897Z,101409.11
2019-05-01T08:48:21.942Z,101406.62
2019-05-01T08:50:54.586Z,101409.63
2019-05-01T08:53:23.260Z,101407.97
2019-05-01T08:55:52.440Z,101405.06
2019-05-01T08:58:21.499Z,101406.98
2019-05-01T09:00:50.514Z,101404.66
2019-05-01T09:03:20.469Z,101403.71
2019-05-01T09:05:52.150Z,101405.70
2019-05-01T09:08:20.374Z,101402.45
2019-05-01T09:10:49.897Z,101402.36
2019-05-01T09:13:23.637Z,101398.80
2019-05-01T09:15:49.685Z,101399.00
2019-05-01T09:18:19.010Z,101397.19
2019-05-01T09:20:50.197Z,101396.59
2019-05-01T09:23:19.325Z,101397.72
2019-05-01T09:25:58.070Z,101396.41
2019-05-01T09:28:31.164Z,101389.80
2019-05-01T09:31:03.369Z,101395.38
2019-05-01T09:33:32.668Z,101398.37
2019-05-01T09:36:01.814Z,101389.92
2019-05-01T09:38:31.056Z,101389.64
2019-05-01T09:41:00.123Z,101387.06
2019-05-01T09:43:30.946Z,101388.56
2019-05-01T09:45:59.934Z,101387.77
2019-05-01T09:48:29.061Z,101384.87
2019-05-01T09:51:06.731Z,101387.69
2019-05-01T09:53:48.750Z,101386.14
2019-05-01T09:56:21.579Z,101383.20
2019-05-01T09:58:50.942Z,101384.25
2019-05-01T10:01:24.610Z,101387.48
2019-05-01T10:03:54.550Z,101386.61
2019-05-01T10:06:21.501Z,101384.92
2019-05-01T10:08:50.561Z,101379.39
2019-05-01T10:11:19.702Z,101380.16
2019-05-01T10:13:48.736Z,101379.39
2019-05-01T10:16:17.798Z,101376.74
2019-05-01T10:18:46.857Z,101374.41
2019-05-01T10:21:15.923Z,101376.03
2019-05-01T10:23:47.116Z,101374.79
2019-05-01T10:26:19.050Z,101372.31
2019-05-01T10:29:11.259Z,101375.19
2019-05-01T10:32:17.005Z,101369.88
2019-05-01T10:34:56.983Z,101370.64
2019-05-01T10:37:28.332Z,101358.87
2019-05-01T10:39:56.773Z,101363.13
2019-05-01T10:42:25.842Z,101363.25
2019-05-01T10:44:54.850Z,101364.85
2019-05-01T10:47:23.866Z,101366.41
2019-05-01T10:49:52.919Z,101370.56
2019-05-01T10:52:21.937Z,101358.63
2019-05-01T10:54:51.003Z,101363.92
2019-05-01T10:57:20.029Z,101360.48
2019-05-01T10:59:49.047Z,101350.31
2019-05-01T11:02:19.473Z,101355.66
2019-05-01T11:04:48.498Z,101352.30
2019-05-01T11:07:17.594Z,101356.14
2019-05-01T11:09:46.634Z,101353.87
2019-05-01T11:12:15.710Z,101350.52
2019-05-01T11:14:44.721Z,101349.91
2019-05-01T11:17:13.769Z,101350.50
2019-05-01T11:19:42.851Z,101342.99
2019-05-01T11:22:12.075Z,101346.46
2019-05-01T11:24:41.090Z,101343.05
2019-05-01T11:27:10.155Z,101338.84
2019-05-01T11:29:39.185Z,101335.16
2019-05-01T11:32:29.757Z,101327.70
2019-05-01T11:35:16.051Z,101332.45
2019-05-01T11:37:53.559Z,101326.77
2019-05-01T11:40:45.574Z,101326.70
2019-05-01T11:43:14.647Z,101331.05
2019-05-01T11:45:43.658Z,101320.56
2019-05-01T11:48:13.179Z,101326.99
2019-05-01T11:50:43.107Z,101322.56
2019-05-01T11:53:13.186Z,101327.55
2019-05-01T11:55:43.231Z,101325.64
2019-05-01T11:58:13.230Z,101327.98
2019-05-01T12:00:42.967Z,101324.90
2019-05-01T12:03:12.030Z,101322.85
2019-05-01T12:05:41.134Z,101326.63
2019-05-01T12:08:10.349Z,101316.05
2019-05-01T12:10:39.410Z,101317.78
2019-05-01T12:13:08.503Z,101320.48
2019-05-01T12:15:37.569Z,101309.58
2019-05-01T12:18:06.603Z,101324.84
2019-05-01T12:20:35.663Z,101317.14
2019-05-01T12:23:04.779Z,101311.02
2019-05-01T12:25:33.849Z,101309.89
2019-05-01T12:28:03.195Z,101306.95
2019-05-01T12:30:32.322Z,101300.59
2019-05-01T12:33:01.687Z,101296.54
2019-05-01T12:35:30.761Z,101299.36
2019-05-01T12:38:02.451Z,101299.32
2019-05-01T12:40:31.480Z,101302.94
2019-05-01T12:43:00.620Z,101291.13
2019-05-01T12:45:29.655Z,101297.87
2019-05-01T12:48:00.757Z,101296.47
2019-05-01T12:50:29.877Z,101291.34
2019-05-01T12:56:05.083Z,101279.23
2019-05-01T12:58:35.688Z,101286.45
2019-05-01T13:01:04.852Z,101281.73
2019-05-01T13:03:34.089Z,101289.47
2019-05-01T13:06:03.197Z,101276.41
2019-05-01T13:08:32.218Z,101290.32
2019-05-01T13:11:03.369Z,101285.63
2019-05-01T13:13:32.555Z,101288.88
2019-05-01T13:16:01.621Z,101281.90
2019-05-01T13:18:30.569Z,101285.38
2019-05-01T13:20:59.589Z,101281.17
2019-05-01T13:23:28.647Z,101276.55
2019-05-01T13:26:04.125Z,101264.30
2019-05-01T13:28:43.146Z,101269.28
2019-05-01T13:31:21.307Z,101271.50
2019-05-01T13:33:50.510Z,101270.54
2019-05-01T13:36:19.611Z,101258.62
2019-05-01T13:38:49.724Z,101253.16
2019-05-01T13:41:19.643Z,101253.36
2019-05-01T13:43:49.670Z,101265.70
2019-05-01T13:46:19.727Z,101256.66
2019-05-01T13:48:49.941Z,101262.52
2019-05-01T13:51:19.821Z,101264.06
2019-05-01T13:53:50.121Z,101249.01
2019-05-01T13:56:19.891Z,101248.56
2019-05-01T13:58:49.919Z,101257.58
2019-05-01T14:01:19.978Z,101249.12
2019-05-01T14:03:49.963Z,101244.02
2019-05-01T14:06:19.927Z,101246.19
2019-05-01T14:08:49.990Z,101238.67
2019-05-01T14:11:19.966Z,101237.69
2019-05-01T14:13:50.007Z,101237.69
2019-05-01T14:16:20.002Z,101241.24
2019-05-01T14:18:50.015Z,101225.50
2019-05-01T14:21:43.428Z,101228.12
2019-05-01T14:24:22.259Z,101236.11
2019-05-01T14:26:51.271Z,101240.51
2019-05-01T14:29:20.295Z,101228.24
2019-05-01T14:31:50.209Z,101234.25
2019-05-01T14:34:20.130Z,101226.92
2019-05-01T14:36:50.123Z,101222.71
2019-05-01T14:39:20.337Z,101223.33
2019-05-01T14:41:50.181Z,101223.77
2019-05-01T14:44:20.396Z,101216.69
2019-05-01T14:46:50.255Z,101217.21
2019-05-01T14:49:19.271Z,101216.00
2019-05-01T14:51:48.288Z,101212.06
2019-05-01T14:54:17.344Z,101211.67
2019-05-01T14:56:46.433Z,101206.49
2019-05-01T14:59:15.596Z,101205.34
2019-05-01T15:01:47.083Z,101211.22
2019-05-01T15:04:15.484Z,101200.31
2019-05-01T15:06:44.499Z,101207.18
2019-05-01T15:09:13.555Z,101202.36
2019-05-01T15:11:43.691Z,101202.57
2019-05-01T15:14:49.946Z,101202.66
2019-05-01T15:17:27.688Z,101192.20
2019-05-01T15:20:01.338Z,101192.87
2019-05-01T15:22:30.815Z,101198.27
2019-05-01T15:25:00.104Z,101194.70
2019-05-01T15:27:29.411Z,101196.18
2019-05-01T15:29:58.462Z,101191.08
2019-05-01T15:32:27.443Z,101190.88
2019-05-01T15:34:56.467Z,101186.05
2019-05-01T15:37:25.526Z,101189.46
2019-05-01T15:40:04.799Z,101193.55
2019-05-01T15:42:41.547Z,101183.55
2019-05-01T15:45:10.667Z,101183.48
2019-05-01T15:47:39.816Z,101184.11
2019-05-01T15:50:09.265Z,101177.19
2019-05-01T15:52:38.419Z,101177.91
2019-05-01T15:55:08.427Z,101174.23
2019-05-01T15:57:37.530Z,101176.63
2019-05-01T16:00:09.154Z,101179.67
2019-05-01T16:02:38.211Z,101168.00
2019-05-01T16:05:07.459Z,101168.16
2019-05-01T16:07:36.960Z,101168.38
2019-05-01T16:10:09.101Z,101166.47
2019-05-01T16:12:56.005Z,101166.95
2019-05-01T16:15:28.043Z,101147.14
2019-05-01T16:17:57.111Z,101154.91
2019-05-01T16:20:26.121Z,101151.78
2019-05-01T16:22:55.142Z,101150.22
2019-05-01T16:25:24.223Z,101143.91
2019-05-01T16:27:53.245Z,101145.63
2019-05-01T16:30:24.855Z,101145.64
2019-05-01T16:32:54.022Z,101138.00
2019-05-01T16:35:23.047Z,101144.98
2019-05-01T16:37:52.117Z,101138.21
2019-05-01T16:40:39.411Z,101132.88
2019-05-01T16:43:10.599Z,101130.16
2019-05-01T16:45:39.668Z,101129.79
2019-05-01T16:48:08.774Z,101134.84
2019-05-01T16:50:37.814Z,101130.45
2019-05-01T16:53:07.218Z,101122.81
2019-05-01T16:55:36.269Z,101123.98
2019-05-01T16:58:06.374Z,101118.20
2019-05-01T17:01:37.777Z,101123.09
2019-05-01T17:04:11.993Z,101116.91
2019-05-01T17:07:11.212Z,101114.27
2019-05-01T17:09:53.133Z,101112.05
2019-05-01T17:12:24.606Z,101112.86
2019-05-01T17:14:53.645Z,101113.01
2019-05-01T17:17:24.180Z,101104.67
2019-05-01T17:19:53.194Z,101110.23
2019-05-01T17:22:22.252Z,101102.55
2019-05-01T17:24:51.590Z,101100.05
2019-05-01T17:27:21.027Z,101106.97
2019-05-01T17:29:50.037Z,101096.98
2019-05-01T17:32:19.040Z,101102.97
2019-05-01T17:34:48.116Z,101094.37
2019-05-01T17:37:17.504Z,101096.56
2019-05-01T17:39:46.536Z,101098.70
2019-05-01T17:42:15.586Z,101093.28
2019-05-01T17:44:44.608Z,101085.12
2019-05-01T17:47:13.615Z,101094.23
2019-05-01T17:49:44.892Z,101089.16
2019-05-01T17:52:13.471Z,101093.87
2019-05-01T17:54:42.532Z,101094.13
2019-05-01T17:57:11.544Z,101085.28
2019-05-01T17:59:40.549Z,101092.05
2019-05-01T18:02:47.117Z,101087.44
2019-05-01T18:05:29.081Z,101088.07
2019-05-01T18:07:58.138Z,101078.80
2019-05-01T18:10:27.163Z,101080.39
2019-05-01T18:12:56.196Z,101071.77
2019-05-01T18:15:25.480Z,101079.80
2019-05-01T18:17:54.511Z,101084.73
2019-05-01T18:20:23.666Z,101076.59
2019-05-01T18:23:12.354Z,101080.93
2019-05-01T18:26:04.909Z,101072.59
2019-05-01T18:28:45.400Z,101074.92
2019-05-01T18:31:18.940Z,101071.91
2019-05-01T18:33:48.023Z,101071.47
2019-05-01T18:36:19.958Z,101068.48
2019-05-01T18:38:57.216Z,101058.08
2019-05-01T18:41:32.175Z,101070.17
2019-05-01T18:44:05.365Z,101061.77
2019-05-01T18:46:32.925Z,101060.79
2019-05-01T18:49:02.829Z,101057.34
2019-05-01T18:51:36.192Z,101048.82
2019-05-01T18:54:05.071Z,101061.41
2019-05-01T18:56:38.205Z,101055.72
2019-05-01T18:59:04.917Z,101045.52
2019-05-01T19:01:34.258Z,101048.84
2019-05-01T19:04:03.285Z,101041.47
2019-05-01T19:06:41.020Z,101043.53
2019-05-01T19:09:14.684Z,101040.11
2019-05-01T19:11:36.734Z,101042.91
2019-05-01T19:14:05.970Z,101039.05
2019-05-01T19:16:35.018Z,101040.91
2019-05-01T19:19:05.508Z,101036.28
2019-05-01T19:21:36.474Z,101041.98
2019-05-01T19:24:06.091Z,101030.23
2019-05-01T19:26:38.213Z,101036.20
2019-05-01T19:29:06.425Z,101037.27
2019-05-01T19:31:35.453Z,101032.23
2019-05-01T19:34:04.660Z,101033.50
2019-05-01T19:36:33.665Z,101041.67
2019-05-01T19:39:06.936Z,101039.10
2019-05-01T19:41:34.491Z,101036.77
2019-05-01T19:44:03.562Z,101036.96
2019-05-01T19:46:33.179Z,101031.52
2019-05-01T19:49:03.095Z,101035.67
2019-05-01T19:51:33.597Z,101032.20
2019-05-01T19:54:03.121Z,101032.30
2019-05-01T19:56:33.139Z,101025.17
2019-05-01T19:59:03.142Z,101020.23
2019-05-01T20:01:33.469Z,101022.75
2019-05-01T20:04:03.502Z,101021.03
2019-05-01T20:06:33.380Z,101016.97
2019-05-01T20:09:03.466Z,101010.38
2019-05-01T20:11:33.463Z,101014.58
2019-05-01T20:14:06.047Z,101016.92
2019-05-01T20:16:34.010Z,101019.39
2019-05-01T20:19:03.305Z,101019.73
2019-05-01T20:21:33.179Z,101012.55
2019-05-01T20:24:04.301Z,101002.89
2019-05-01T20:26:34.235Z,101011.59
2019-05-01T20:29:03.244Z,100999.69
2019-05-01T20:31:33.225Z,100999.18
2019-05-01T20:34:03.291Z,100992.78
2019-05-01T20:36:33.274Z,100993.16
2019-05-01T20:39:05.609Z,100994.42
2019-05-01T20:41:34.662Z,100989.77
2019-05-01T20:44:03.738Z,100982.48
2019-05-01T20:46:33.232Z,100982.06
2019-05-01T20:49:06.486Z,100973.73
2019-05-01T20:51:33.967Z,100962.94
2019-05-01T20:54:03.361Z,100964.57
2019-05-01T20:56:38.521Z,100949.56
2019-05-01T20:59:07.565Z,100957.86
2019-05-01T21:01:36.703Z,100957.67
2019-05-01T21:04:28.234Z,100950.04
2019-05-01T21:07:15.537Z,100949.64
2019-05-01T21:09:47.832Z,100943.07
2019-05-01T21:12:15.119Z,100945.02
2019-05-01T21:14:45.321Z,100941.02
2019-05-01T21:17:15.160Z,100936.82
2019-05-01T21:19:44.255Z,100934.81
2019-05-01T21:22:14.235Z,100926.38
2019-05-01T21:24:44.400Z,100925.50
2019-05-01T21:27:13.577Z,100921.45
2019-05-01T21:29:44.531Z,100917.54
2019-05-01T21:32:13.777Z,100903.88
2019-05-01T21:34:44.368Z,100911.33
2019-05-01T21:37:13.412Z,100907.02
2019-05-01T21:39:43.640Z,100892.14
2019-05-01T21:42:15.912Z,100883.81
2019-05-01T21:44:43.722Z,100880.16
2019-05-01T21:47:13.897Z,100874.34
2019-05-01T21:49:43.250Z,100880.99
2019-05-01T21:52:13.473Z,100873.75
2019-05-01T21:54:42.702Z,100869.19
2019-05-01T21:57:16.713Z,100868.56
2019-05-01T21:59:44.719Z,100863.41
2019-05-01T22:02:13.246Z,100860.52
2019-05-01T22:04:42.255Z,100863.15
2019-05-01T22:07:11.306Z,100859.42
2019-05-01T22:09:40.732Z,100856.78
2019-05-01T22:12:13.069Z,100850.69
2019-05-01T22:14:54.084Z,100852.48
2019-05-01T22:17:32.087Z,100851.31
2019-05-01T22:20:01.456Z,100842.36
2019-05-01T22:22:38.700Z,100840.34
2019-05-01T22:25:14.414Z,100843.11
2019-05-01T22:27:53.890Z,100844.06
2019-05-01T22:30:36.373Z,100837.60
2019-05-01T22:33:05.670Z,100834.77
2019-05-01T22:35:37.406Z,100836.05
2019-05-01T22:38:08.052Z,100832.42
2019-05-01T22:41:09.124Z,100830.78
2019-05-01T22:43:38.532Z,100828.91
2019-05-01T22:46:09.735Z,100824.31
2019-05-01T22:48:38.810Z,100813.75
2019-05-01T22:51:14.450Z,100813.75
2019-05-01T22:53:43.525Z,100824.79
2019-05-01T22:56:12.574Z,100815.84
2019-05-01T22:58:41.624Z,100819.74
2019-05-01T23:01:13.147Z,100812.98
2019-05-01T23:03:59.606Z,100814.84
2019-05-01T23:06:28.616Z,100810.95
2019-05-01T23:08:57.711Z,100811.17
2019-05-01T23:11:28.600Z,100798.78
2019-05-01T23:13:57.893Z,100800.77
2019-05-01T23:16:30.629Z,100790.97
2019-05-01T23:18:59.729Z,100784.08
2019-05-01T23:21:28.788Z,100783.84
2019-05-01T23:24:01.887Z,100783.41
2019-05-01T23:26:28.901Z,100775.86
2019-05-01T23:28:57.918Z,100769.11
2019-05-01T23:31:27.236Z,100769.50
2019-05-01T23:33:56.215Z,100765.30
2019-05-01T23:36:25.158Z,100766.16
2019-05-01T23:38:54.206Z,100759.28
2019-05-01T23:41:44.562Z,100754.33
2019-05-01T23:43:58.098Z,100752.34
2019-05-01T23:46:24.772Z,100752.34
2019-05-01T23:48:53.833Z,100742.22
2019-05-01T23:51:23.679Z,100746.06
2019-05-01T23:53:53.583Z,100736.69
2019-05-01T23:56:22.683Z,100735.75
2019-05-01T23:58:51.744Z,100731.70
